Saxaren — SKHW — position and weather

sailwx.info

Track history (hours):
 
Tides and Currents Weather Stations Pressure Air Temp Water Temp Dewpoint Dewpoint Depression Visibility Wind Speed Wind Dir Waves Ship Positions

Saxaren

Last reported at 2014-Sep-22 19:33 UTC. Time now 2014-Sep-22 20:21 UTC.
Position N 59°20' E 018°05'.

Length 38 m; draft 1.8 m.

Type: Passenger vessel. MMSI: 265512110.

Date/timePositionNaut miles runAvg speedWind from/ knotsBaromVisibWave heightAir tempDewpointWater temp
2014-Sep-22 19:33N 59°20' E 018°05'0 0.0
2014-Sep-22 18:30N 59°20' E 018°05'0 0.0
2014-Sep-22 17:33N 59°20' E 018°05'0 0.0
2014-Sep-22 16:30N 59°20' E 018°05'7 0.3
2014-Sep-21 14:16N 59°23' E 018°18'7 9.9
2014-Sep-21 13:32N 59°20' E 018°05'4 0.6
2014-Sep-21 07:09N 59°20' E 018°12'4 6.8
2014-Sep-21 06:33N 59°20' E 018°04'0 0.0
2014-Sep-21 05:33N 59°20' E 018°05'0 0.0
2014-Sep-21 04:34N 59°20' E 018°04'0 0.0
2014-Sep-21 03:33N 59°20' E 018°04'0 0.0
2014-Sep-21 02:34N 59°20' E 018°04'0 0.0
2014-Sep-21 01:33N 59°20' E 018°05'0 0.0
2014-Sep-21 00:33N 59°20' E 018°04'0 0.0
2014-Sep-20 23:33N 59°20' E 018°04'0 0.0
2014-Sep-20 22:33N 59°20' E 018°05'0 0.0
2014-Sep-20 21:33N 59°20' E 018°04'0 0.0
2014-Sep-20 20:33N 59°20' E 018°05'0 0.0
2014-Sep-20 19:33N 59°20' E 018°05'0 0.0
2014-Sep-20 18:33N 59°20' E 018°05'0 0.0
2014-Sep-20 17:33N 59°20' E 018°04'0 0.1
2014-Sep-20 16:33N 59°20' E 018°05'0 0.0
2014-Sep-20 06:33N 59°19' E 018°05'0 0.3
2014-Sep-20 05:33N 59°20' E 018°05'0 0.0
2014-Sep-20 04:33N 59°20' E 018°05'0 0.0
2014-Sep-20 03:33N 59°20' E 018°05'0 0.0
2014-Sep-20 02:33N 59°20' E 018°05'0 0.0
2014-Sep-20 01:33N 59°20' E 018°05'0 0.0
2014-Sep-20 00:33N 59°20' E 018°05'0 0.0
2014-Sep-19 23:33N 59°20' E 018°05'0 0.0
2014-Sep-19 22:33N 59°20' E 018°05'0 0.0
2014-Sep-19 21:33N 59°20' E 018°05'0 0.0
2014-Sep-19 15:32N 59°20' E 018°05'0 0.2
2014-Sep-19 14:33N 59°20' E 018°05'0 0.2
2014-Sep-19 13:33N 59°20' E 018°05'3 0.1
2014-Sep-18 09:26N 59°20' E 018°11'4 4.0
2014-Sep-18 08:33N 59°20' E 018°05'0 0.0
2014-Sep-18 07:33N 59°20' E 018°05'0 0.0
2014-Sep-18 06:33N 59°20' E 018°05'0 0.0
2014-Sep-18 05:33N 59°20' E 018°05'0 0.0
2014-Sep-18 04:33N 59°20' E 018°05'0 0.0
2014-Sep-18 03:33N 59°20' E 018°05'0 0.0
2014-Sep-18 02:33N 59°20' E 018°05'0 0.0
2014-Sep-18 01:33N 59°20' E 018°05'0 0.0
2014-Sep-18 00:33N 59°20' E 018°05'0 0.0
2014-Sep-17 23:33N 59°20' E 018°05'0 0.0
2014-Sep-17 22:33N 59°20' E 018°05'0 0.0
2014-Sep-17 21:33N 59°20' E 018°05'0 0.0
2014-Sep-17 20:33N 59°20' E 018°05'0 0.0
2014-Sep-17 19:33N 59°20' E 018°05'0 0.0
2014-Sep-17 18:32N 59°20' E 018°05'0 0.0
2014-Sep-17 17:33N 59°20' E 018°05'0 0.0
2014-Sep-17 16:33N 59°20' E 018°05'8 0.9
2014-Sep-17 07:11N 59°23' E 018°20'710.5
2014-Sep-17 06:33N 59°19' E 018°09'3 1.3
2014-Sep-17 04:33N 59°20' E 018°04'0 0.0
2014-Sep-17 03:33N 59°20' E 018°04'0 0.0
2014-Sep-17 02:33N 59°20' E 018°04'0 0.0
2014-Sep-17 01:33N 59°20' E 018°05'0 0.0
2014-Sep-17 00:33N 59°20' E 018°04'0 0.0
2014-Sep-16 23:33N 59°20' E 018°04'0 0.0
2014-Sep-16 22:33N 59°20' E 018°05'0 0.0
2014-Sep-16 21:33N 59°20' E 018°04'0 0.0
2014-Sep-16 20:33N 59°20' E 018°05'0 0.0
2014-Sep-16 19:33N 59°20' E 018°05'0 0.0
2014-Sep-16 18:33N 59°20' E 018°05'0 0.0
2014-Sep-16 17:33N 59°20' E 018°05'0 0.0
2014-Sep-16 07:14N 59°20' E 018°04'0 0.0
2014-Sep-16 05:31N 59°20' E 018°05'0 0.0
2014-Sep-16 04:28N 59°20' E 018°05'0 0.0
2014-Sep-16 03:33N 59°20' E 018°04'0 0.0
2014-Sep-16 02:33N 59°20' E 018°04'0 0.0
2014-Sep-16 01:33N 59°20' E 018°04'0 0.0
2014-Sep-16 00:33N 59°20' E 018°04'0 0.0
2014-Sep-15 23:33N 59°20' E 018°04'0 0.0
2014-Sep-15 22:33N 59°20' E 018°05'0 0.0
2014-Sep-15 21:33N 59°20' E 018°04'0 0.0
2014-Sep-15 20:33N 59°20' E 018°05'0 0.0
2014-Sep-15 19:33N 59°20' E 018°04'0 0.0
2014-Sep-15 18:33N 59°20' E 018°05'0 0.0
2014-Sep-15 17:33N 59°20' E 018°05'0 0.0
2014-Sep-15 16:33N 59°20' E 018°05'0 0.0
2014-Sep-15 15:33N 59°20' E 018°04'0 0.0
2014-Sep-15 08:22N 59°20' E 018°04'  
Track history (hours):
 
Tides and Currents Weather Stations Pressure Air Temp Water Temp Dewpoint Dewpoint Depression Visibility Wind Speed Wind Dir Waves Ship Positions

Saxaren

Last reported at 2014-Sep-22 19:33 UTC. Time now 2014-Sep-22 20:21 UTC.
Position N 59°20' E 018°05'.

Length 38 m; draft 1.8 m.

Type: Passenger vessel. MMSI: 265512110.

Date/timePositionNaut miles runAvg speedWind from/ knotsBaromVisibWave heightAir tempDewpointWater temp
2014-Sep-22 19:33N 59°20' E 018°05'0 0.0
2014-Sep-22 18:30N 59°20' E 018°05'0 0.0
2014-Sep-22 17:33N 59°20' E 018°05'0 0.0
2014-Sep-22 16:30N 59°20' E 018°05'7 0.3
2014-Sep-21 14:16N 59°23' E 018°18'7 9.9
2014-Sep-21 13:32N 59°20' E 018°05'4 0.6
2014-Sep-21 07:09N 59°20' E 018°12'4 6.8
2014-Sep-21 06:33N 59°20' E 018°04'0 0.0
2014-Sep-21 05:33N 59°20' E 018°05'0 0.0
2014-Sep-21 04:34N 59°20' E 018°04'0 0.0
2014-Sep-21 03:33N 59°20' E 018°04'0 0.0
2014-Sep-21 02:34N 59°20' E 018°04'0 0.0
2014-Sep-21 01:33N 59°20' E 018°05'0 0.0
2014-Sep-21 00:33N 59°20' E 018°04'0 0.0
2014-Sep-20 23:33N 59°20' E 018°04'0 0.0
2014-Sep-20 22:33N 59°20' E 018°05'0 0.0
2014-Sep-20 21:33N 59°20' E 018°04'0 0.0
2014-Sep-20 20:33N 59°20' E 018°05'0 0.0
2014-Sep-20 19:33N 59°20' E 018°05'0 0.0
2014-Sep-20 18:33N 59°20' E 018°05'0 0.0
2014-Sep-20 17:33N 59°20' E 018°04'0 0.1
2014-Sep-20 16:33N 59°20' E 018°05'0 0.0
2014-Sep-20 06:33N 59°19' E 018°05'0 0.3
2014-Sep-20 05:33N 59°20' E 018°05'0 0.0
2014-Sep-20 04:33N 59°20' E 018°05'0 0.0
2014-Sep-20 03:33N 59°20' E 018°05'0 0.0
2014-Sep-20 02:33N 59°20' E 018°05'0 0.0
2014-Sep-20 01:33N 59°20' E 018°05'0 0.0
2014-Sep-20 00:33N 59°20' E 018°05'0 0.0
2014-Sep-19 23:33N 59°20' E 018°05'0 0.0
2014-Sep-19 22:33N 59°20' E 018°05'0 0.0
2014-Sep-19 21:33N 59°20' E 018°05'0 0.0
2014-Sep-19 15:32N 59°20' E 018°05'0 0.2
2014-Sep-19 14:33N 59°20' E 018°05'0 0.2
2014-Sep-19 13:33N 59°20' E 018°05'3 0.1
2014-Sep-18 09:26N 59°20' E 018°11'4 4.0
2014-Sep-18 08:33N 59°20' E 018°05'0 0.0
2014-Sep-18 07:33N 59°20' E 018°05'0 0.0
2014-Sep-18 06:33N 59°20' E 018°05'0 0.0
2014-Sep-18 05:33N 59°20' E 018°05'0 0.0
2014-Sep-18 04:33N 59°20' E 018°05'0 0.0
2014-Sep-18 03:33N 59°20' E 018°05'0 0.0
2014-Sep-18 02:33N 59°20' E 018°05'0 0.0
2014-Sep-18 01:33N 59°20' E 018°05'0 0.0
2014-Sep-18 00:33N 59°20' E 018°05'0 0.0
2014-Sep-17 23:33N 59°20' E 018°05'0 0.0
2014-Sep-17 22:33N 59°20' E 018°05'0 0.0
2014-Sep-17 21:33N 59°20' E 018°05'0 0.0
2014-Sep-17 20:33N 59°20' E 018°05'0 0.0
2014-Sep-17 19:33N 59°20' E 018°05'0 0.0
2014-Sep-17 18:32N 59°20' E 018°05'0 0.0
2014-Sep-17 17:33N 59°20' E 018°05'0 0.0
2014-Sep-17 16:33N 59°20' E 018°05'8 0.9
2014-Sep-17 07:11N 59°23' E 018°20'710.5
2014-Sep-17 06:33N 59°19' E 018°09'3 1.3
2014-Sep-17 04:33N 59°20' E 018°04'0 0.0
2014-Sep-17 03:33N 59°20' E 018°04'0 0.0
2014-Sep-17 02:33N 59°20' E 018°04'0 0.0
2014-Sep-17 01:33N 59°20' E 018°05'0 0.0
2014-Sep-17 00:33N 59°20' E 018°04'0 0.0
2014-Sep-16 23:33N 59°20' E 018°04'0 0.0
2014-Sep-16 22:33N 59°20' E 018°05'0 0.0
2014-Sep-16 21:33N 59°20' E 018°04'0 0.0
2014-Sep-16 20:33N 59°20' E 018°05'0 0.0
2014-Sep-16 19:33N 59°20' E 018°05'0 0.0
2014-Sep-16 18:33N 59°20' E 018°05'0 0.0
2014-Sep-16 17:33N 59°20' E 018°05'0 0.0
2014-Sep-16 07:14N 59°20' E 018°04'0 0.0
2014-Sep-16 05:31N 59°20' E 018°05'0 0.0
2014-Sep-16 04:28N 59°20' E 018°05'0 0.0
2014-Sep-16 03:33N 59°20' E 018°04'0 0.0
2014-Sep-16 02:33N 59°20' E 018°04'0 0.0
2014-Sep-16 01:33N 59°20' E 018°04'0 0.0
2014-Sep-16 00:33N 59°20' E 018°04'0 0.0
2014-Sep-15 23:33N 59°20' E 018°04'0 0.0
2014-Sep-15 22:33N 59°20' E 018°05'0 0.0
2014-Sep-15 21:33N 59°20' E 018°04'0 0.0
2014-Sep-15 20:33N 59°20' E 018°05'0 0.0
2014-Sep-15 19:33N 59°20' E 018°04'0 0.0
2014-Sep-15 18:33N 59°20' E 018°05'0 0.0
2014-Sep-15 17:33N 59°20' E 018°05'0 0.0
2014-Sep-15 16:33N 59°20' E 018°05'0 0.0
2014-Sep-15 15:33N 59°20' E 018°04'0 0.0
2014-Sep-15 08:22N 59°20' E 018°04'  

Dump ship's entire track history